Time;durP1;ratioP1;P1;durP2;ratioP2;P2;SDS_P1;SDS_P2;PMS_P1;PMS_P2;Temp;Humidity;BMP_temperature;BMP_pressure;BME280_temperature;BME280_humidity;BME280_pressure;Samples;Min_cycle;Max_cycle;Signal;HPM_P1;HPM_P2
2023/12/25 00:00:05;;;;;;;0.80;0.17;;;13.60;99.90;;;;;;5062177;28;20040;-68
2023/12/25 00:02:35;;;;;;;0.75;0.20;;;13.50;99.90;;;;;;5059824;28;20085;-68
2023/12/25 00:05:02;;;;;;;0.88;0.20;;;13.50;99.90;;;;;;5054081;28;20056;-70
2023/12/25 00:07:29;;;;;;;0.50;0.20;;;13.50;99.90;;;;;;5049792;28;20408;-69
2023/12/25 00:09:55;;;;;;;0.30;0.20;;;13.40;99.90;;;;;;5054267;28;20059;-69
2023/12/25 00:12:23;;;;;;;0.30;0.30;;;13.50;99.90;;;;;;5056660;28;20044;-68
2023/12/25 00:14:50;;;;;;;2.13;0.30;;;13.50;99.90;;;;;;5060861;28;20044;-68
2023/12/25 00:17:17;;;;;;;1.88;0.28;;;13.50;99.90;;;;;;5062950;28;20466;-68
2023/12/25 00:19:44;;;;;;;0.47;0.20;;;13.50;99.90;;;;;;5049205;28;20055;-68
2023/12/25 00:22:12;;;;;;;1.55;0.50;;;13.50;99.90;;;;;;5056009;28;20044;-68
2023/12/25 00:24:40;;;;;;;0.20;0.20;;;13.50;99.90;;;;;;5052772;28;20099;-69
2023/12/25 00:27:07;;;;;;;1.35;0.40;;;13.60;99.90;;;;;;5055625;28;20068;-70
2023/12/25 00:29:34;;;;;;;0.40;0.30;;;13.50;99.90;;;;;;5053676;28;20149;-69
2023/12/25 00:32:01;;;;;;;1.55;0.43;;;13.60;99.90;;;;;;5055837;28;20088;-70
2023/12/25 00:34:28;;;;;;;0.45;0.30;;;13.60;99.90;;;;;;5046549;28;20049;-69
2023/12/25 00:36:55;;;;;;;0.30;0.20;;;13.60;99.90;;;;;;5052391;28;20041;-69
2023/12/25 00:39:21;;;;;;;0.73;0.20;;;13.60;99.90;;;;;;5062821;28;20040;-68
2023/12/25 00:41:48;;;;;;;0.95;0.50;;;13.60;99.90;;;;;;5062257;28;20052;-69
2023/12/25 00:44:15;;;;;;;0.85;0.30;;;13.70;99.90;;;;;;5048896;28;20314;-70
2023/12/25 00:46:42;;;;;;;1.40;0.20;;;13.60;99.90;;;;;;5060736;28;20495;-69
2023/12/25 00:49:10;;;;;;;0.13;0.10;;;13.70;99.90;;;;;;5062286;28;20052;-69
2023/12/25 00:51:37;;;;;;;1.33;0.50;;;13.60;99.90;;;;;;5058296;28;20044;-69
2023/12/25 00:54:04;;;;;;;0.90;0.20;;;13.50;99.90;;;;;;5060547;28;20125;-69
2023/12/25 00:56:31;;;;;;;1.38;0.30;;;13.60;99.90;;;;;;5056433;28;20315;-74
2023/12/25 00:58:59;;;;;;;0.70;0.20;;;13.60;99.90;;;;;;5052341;28;20045;-74
2023/12/25 01:01:26;;;;;;;0.45;0.22;;;13.60;99.90;;;;;;5046945;28;20052;-73
2023/12/25 01:03:52;;;;;;;2.08;0.35;;;13.60;99.90;;;;;;5064349;28;20081;-73
2023/12/25 01:06:19;;;;;;;0.52;0.30;;;13.60;99.90;;;;;;5058656;28;20045;-73
2023/12/25 01:08:46;;;;;;;2.55;0.55;;;13.60;99.90;;;;;;5061422;28;20056;-74
2023/12/25 01:11:14;;;;;;;0.20;0.20;;;13.60;99.90;;;;;;5049633;28;20146;-75
2023/12/25 01:13:41;;;;;;;1.38;0.40;;;13.60;99.90;;;;;;5059913;28;20048;-75
2023/12/25 01:16:08;;;;;;;1.55;0.35;;;13.70;99.90;;;;;;5056875;28;20106;-76
2023/12/25 01:18:34;;;;;;;0.65;0.40;;;13.60;99.90;;;;;;5062102;28;20136;-72
2023/12/25 01:21:02;;;;;;;0.68;0.40;;;13.60;99.90;;;;;;5056514;28;20045;-75
2023/12/25 01:23:28;;;;;;;2.40;1.10;;;13.70;99.90;;;;;;5068012;28;20044;-75
2023/12/25 01:25:55;;;;;;;2.47;0.43;;;13.60;99.90;;;;;;5068587;28;20379;-77
2023/12/25 01:28:22;;;;;;;2.42;0.32;;;13.60;99.90;;;;;;5072998;28;20048;-75
2023/12/25 01:30:49;;;;;;;0.60;0.30;;;13.60;99.90;;;;;;5074543;28;20094;-76
2023/12/25 01:33:16;;;;;;;1.20;0.60;;;13.70;99.90;;;;;;5073763;28;20083;-76
2023/12/25 01:35:43;;;;;;;0.40;0.28;;;13.70;99.90;;;;;;5066455;28;20316;-74
2023/12/25 01:38:09;;;;;;;1.13;0.50;;;13.70;99.90;;;;;;5041022;28;20900;-75
2023/12/25 01:40:37;;;;;;;0.98;0.35;;;13.70;99.90;;;;;;5071010;28;20357;-74
2023/12/25 01:43:03;;;;;;;2.03;0.40;;;13.70;99.90;;;;;;5069374;28;20458;-74
2023/12/25 01:45:30;;;;;;;0.35;0.20;;;13.70;99.90;;;;;;5072725;28;20083;-74
2023/12/25 01:47:57;;;;;;;0.20;0.20;;;13.70;99.90;;;;;;5064879;28;20086;-73
2023/12/25 01:50:24;;;;;;;1.65;1.08;;;13.70;99.90;;;;;;5066620;28;20084;-74
2023/12/25 01:52:51;;;;;;;1.33;0.32;;;13.70;99.90;;;;;;5057999;28;20087;-74
2023/12/25 01:55:18;;;;;;;0.45;0.35;;;13.70;99.90;;;;;;5067025;28;20088;-74
2023/12/25 01:57:45;;;;;;;0.95;0.40;;;13.60;99.90;;;;;;5069979;28;20057;-74
2023/12/25 02:00:13;;;;;;;1.98;0.40;;;13.50;99.90;;;;;;5072712;28;20561;-74
2023/12/25 02:02:40;;;;;;;0.73;0.35;;;13.50;99.90;;;;;;5081202;28;20057;-73
2023/12/25 02:05:08;;;;;;;1.00;0.20;;;13.40;99.90;;;;;;5076593;28;20047;-73
2023/12/25 02:07:38;;;;;;;0.10;0.10;;;13.30;99.90;;;;;;5072610;28;20078;-72
2023/12/25 02:10:08;;;;;;;1.35;0.15;;;13.30;99.90;;;;;;5073270;28;20653;-73
2023/12/25 02:12:35;;;;;;;3.17;0.32;;;13.20;99.90;;;;;;5073977;28;20433;-73
2023/12/25 02:15:05;;;;;;;0.10;0.10;;;13.20;99.90;;;;;;5071151;28;20068;-73
2023/12/25 02:17:33;;;;;;;1.60;0.40;;;13.20;99.90;;;;;;5067325;28;20056;-73
2023/12/25 02:20:00;;;;;;;1.38;0.25;;;13.20;99.90;;;;;;5073135;28;20067;-74
2023/12/25 02:22:26;;;;;;;0.30;0.30;;;13.20;99.90;;;;;;5072902;28;20280;-73
2023/12/25 02:25:06;;;;;;;0.80;0.28;;;13.20;99.90;;;;;;5072469;28;20040;-73
2023/12/25 02:27:33;;;;;;;1.83;0.52;;;13.20;99.90;;;;;;5063455;28;20500;-74
2023/12/25 02:30:00;;;;;;;0.80;0.30;;;13.20;99.90;;;;;;5072331;28;20462;-74
2023/12/25 02:32:29;;;;;;;2.22;0.40;;;13.20;99.90;;;;;;5072225;28;20053;-73
2023/12/25 02:34:57;;;;;;;2.38;0.20;;;13.20;99.90;;;;;;5070006;28;20479;-74
2023/12/25 02:37:24;;;;;;;3.75;0.28;;;13.10;99.90;;;;;;5070609;28;20565;-73
2023/12/25 02:39:50;;;;;;;1.15;0.22;;;13.20;99.90;;;;;;5070135;28;20457;-73
2023/12/25 02:42:17;;;;;;;1.42;0.20;;;13.10;99.90;;;;;;5069567;28;20037;-74
2023/12/25 02:44:44;;;;;;;1.60;0.22;;;13.20;99.90;;;;;;5070565;28;20044;-74
2023/12/25 02:47:11;;;;;;;3.22;0.57;;;13.20;99.90;;;;;;5068594;28;20500;-73
2023/12/25 02:49:38;;;;;;;1.25;0.20;;;13.20;99.90;;;;;;5071018;28;20453;-73
2023/12/25 02:52:04;;;;;;;1.00;0.40;;;13.30;99.90;;;;;;5070100;28;20052;-73
2023/12/25 02:54:31;;;;;;;0.75;0.20;;;13.30;99.90;;;;;;5069206;28;20247;-74
2023/12/25 02:56:58;;;;;;;0.28;0.20;;;13.30;99.90;;;;;;5069044;28;20075;-73
2023/12/25 02:59:25;;;;;;;1.80;0.38;;;13.30;99.90;;;;;;5066939;28;20472;-74
2023/12/25 03:01:52;;;;;;;0.65;0.20;;;13.40;99.90;;;;;;5070010;28;20567;-73
2023/12/25 03:04:18;;;;;;;1.30;0.20;;;13.40;99.90;;;;;;5063383;28;20056;-73
2023/12/25 03:06:45;;;;;;;0.52;0.52;;;13.40;99.90;;;;;;5060709;28;20285;-73
2023/12/25 03:09:12;;;;;;;0.22;0.20;;;13.40;99.90;;;;;;5065841;28;20052;-74
2023/12/25 03:11:39;;;;;;;0.43;0.30;;;13.40;99.90;;;;;;5069884;28;20067;-73
2023/12/25 03:14:06;;;;;;;0.55;0.20;;;13.40;99.90;;;;;;5070082;28;20510;-74
2023/12/25 03:16:33;;;;;;;0.20;0.13;;;13.40;99.90;;;;;;5066619;28;20094;-74
2023/12/25 03:19:00;;;;;;;0.20;0.20;;;13.40;99.90;;;;;;4716443;28;10000626;-74
2023/12/25 03:21:27;;;;;;;1.60;0.28;;;13.40;99.90;;;;;;5068337;28;20110;-74
2023/12/25 03:23:53;;;;;;;0.90;0.17;;;13.40;99.90;;;;;;5068297;28;20041;-74
2023/12/25 03:26:20;;;;;;;0.50;0.25;;;13.40;99.90;;;;;;5069571;28;20070;-74
2023/12/25 03:28:47;;;;;;;0.15;0.15;;;13.50;99.90;;;;;;5069300;28;20052;-73
2023/12/25 03:31:14;;;;;;;0.90;0.30;;;13.40;99.90;;;;;;5069998;28;20044;-72
2023/12/25 03:33:41;;;;;;;0.55;0.38;;;13.50;99.90;;;;;;5068165;28;20446;-73
2023/12/25 03:36:08;;;;;;;0.73;0.28;;;13.50;99.90;;;;;;5068503;28;20044;-73
2023/12/25 03:38:35;;;;;;;0.50;0.20;;;13.50;99.90;;;;;;5069049;28;20487;-72
2023/12/25 03:41:02;;;;;;;0.38;0.17;;;13.50;99.90;;;;;;5069765;28;20504;-73
2023/12/25 03:43:29;;;;;;;0.30;0.17;;;13.50;99.90;;;;;;5069098;28;20056;-73
2023/12/25 03:45:59;;;;;;;2.72;0.32;;;13.40;99.90;;;;;;5069422;28;20040;-74
2023/12/25 03:48:30;;;;;;;1.10;0.40;;;13.40;99.90;;;;;;5068809;28;20059;-73
2023/12/25 03:50:57;;;;;;;1.05;0.25;;;13.50;99.90;;;;;;5069821;28;20041;-74
2023/12/25 03:53:24;;;;;;;1.98;0.20;;;13.50;99.90;;;;;;5069127;28;20051;-73
2023/12/25 03:55:50;;;;;;;0.20;0.20;;;13.40;99.90;;;;;;5068146;28;20044;-73
2023/12/25 03:58:17;;;;;;;1.27;0.32;;;13.40;99.90;;;;;;5068646;28;20057;-74
2023/12/25 04:00:44;;;;;;;3.03;0.35;;;13.40;99.90;;;;;;5069523;28;20044;-74
2023/12/25 04:03:11;;;;;;;0.55;0.30;;;13.40;99.90;;;;;;5068764;28;20044;-74
2023/12/25 04:05:38;;;;;;;1.05;0.13;;;13.40;99.90;;;;;;5061051;28;20063;-73
2023/12/25 04:08:05;;;;;;;0.13;0.13;;;13.40;99.90;;;;;;5068382;28;20052;-74
2023/12/25 04:10:32;;;;;;;1.00;0.30;;;13.40;99.90;;;;;;5068791;28;20419;-73
2023/12/25 04:12:59;;;;;;;0.90;0.28;;;13.40;99.90;;;;;;5069113;28;20216;-74
2023/12/25 04:15:26;;;;;;;1.02;0.20;;;13.30;99.90;;;;;;5069001;28;20476;-73
2023/12/25 04:17:52;;;;;;;0.20;0.20;;;13.40;99.90;;;;;;5068580;28;20071;-73
2023/12/25 04:20:20;;;;;;;1.45;0.10;;;13.30;99.90;;;;;;5068455;28;20509;-74
2023/12/25 04:22:48;;;;;;;1.80;0.30;;;13.30;99.90;;;;;;5068823;28;20052;-74
2023/12/25 04:25:15;;;;;;;0.65;0.20;;;13.30;99.90;;;;;;5068690;28;20049;-74
2023/12/25 04:27:44;;;;;;;2.35;0.30;;;13.30;99.90;;;;;;5049577;28;20461;-73
2023/12/25 04:30:11;;;;;;;1.98;0.30;;;13.30;99.90;;;;;;5067241;28;20106;-74
2023/12/25 04:32:38;;;;;;;0.70;0.20;;;13.20;99.90;;;;;;5068979;28;20084;-73
2023/12/25 04:35:05;;;;;;;2.33;0.20;;;13.20;99.90;;;;;;5069211;28;20044;-73
2023/12/25 04:37:32;;;;;;;1.48;0.20;;;13.20;99.90;;;;;;5069381;28;20415;-73
2023/12/25 04:39:59;;;;;;;0.10;0.10;;;13.20;99.90;;;;;;5067843;28;20093;-73
2023/12/25 04:42:26;;;;;;;1.45;0.28;;;13.10;99.90;;;;;;5068820;28;20067;-73
2023/12/25 04:44:52;;;;;;;1.30;0.25;;;13.10;99.90;;;;;;5072994;28;20271;-74
2023/12/25 04:47:19;;;;;;;0.65;0.10;;;13.10;99.90;;;;;;5076138;28;20041;-73
2023/12/25 04:49:46;;;;;;;0.57;0.20;;;13.10;99.90;;;;;;5068495;28;20068;-73
2023/12/25 04:52:13;;;;;;;0.93;0.20;;;13.10;99.90;;;;;;5068464;28;20040;-73
2023/12/25 04:54:40;;;;;;;0.25;0.10;;;13.10;99.90;;;;;;5067918;28;20056;-73
2023/12/25 04:57:06;;;;;;;0.20;0.10;;;13.20;99.90;;;;;;5067951;28;20047;-74
2023/12/25 04:59:33;;;;;;;0.75;0.30;;;13.20;99.90;;;;;;5067905;28;20063;-72
2023/12/25 05:02:00;;;;;;;0.28;0.10;;;13.20;99.90;;;;;;5067874;28;20059;-72
2023/12/25 05:04:28;;;;;;;0.43;0.13;;;13.20;99.90;;;;;;5067958;28;20135;-73
2023/12/25 05:06:54;;;;;;;0.55;0.25;;;13.20;99.90;;;;;;5064567;28;20048;-73
2023/12/25 05:09:21;;;;;;;0.05;0.05;;;13.20;99.90;;;;;;5062839;28;20044;-73
2023/12/25 05:11:48;;;;;;;0.10;0.10;;;13.20;99.90;;;;;;5067551;28;20499;-73
2023/12/25 05:14:15;;;;;;;1.52;0.40;;;13.20;99.90;;;;;;5048178;28;20056;-73
2023/12/25 05:16:42;;;;;;;1.23;0.10;;;13.20;99.90;;;;;;5064809;28;20098;-73
2023/12/25 05:19:10;;;;;;;0.57;0.10;;;13.20;99.90;;;;;;5067788;28;20110;-74
2023/12/25 05:21:37;;;;;;;2.05;0.30;;;13.20;99.90;;;;;;5067701;28;20122;-73
2023/12/25 05:24:04;;;;;;;0.10;0.10;;;13.10;99.90;;;;;;5068263;28;20471;-73
2023/12/25 05:26:31;;;;;;;2.83;0.20;;;13.10;99.90;;;;;;5067572;28;20127;-72
2023/12/25 05:28:58;;;;;;;0.68;0.20;;;13.10;99.90;;;;;;5067689;28;20098;-73
2023/12/25 05:31:24;;;;;;;0.38;0.10;;;13.00;99.90;;;;;;5067608;28;20400;-73
2023/12/25 05:33:51;;;;;;;1.38;0.32;;;13.00;99.90;;;;;;5068076;28;20113;-73
2023/12/25 05:36:18;;;;;;;0.63;0.15;;;13.00;99.90;;;;;;5067633;28;20073;-73
2023/12/25 05:38:45;;;;;;;0.15;0.10;;;12.90;99.90;;;;;;5056782;28;20106;-73
2023/12/25 05:41:31;;;;;;;1.20;0.10;;;12.90;99.90;;;;;;5067442;28;20063;-73
2023/12/25 05:43:57;;;;;;;1.50;0.30;;;12.80;99.90;;;;;;5067900;28;20459;-74
2023/12/25 05:46:24;;;;;;;1.95;0.28;;;12.80;99.90;;;;;;5067683;28;20060;-74
2023/12/25 05:48:52;;;;;;;0.30;0.13;;;12.80;99.90;;;;;;5067726;28;20044;-73
2023/12/25 05:51:19;;;;;;;2.05;0.30;;;12.90;99.90;;;;;;5067810;28;20045;-73
2023/12/25 05:53:46;;;;;;;0.43;0.20;;;12.90;99.90;;;;;;5066237;28;20048;-74
2023/12/25 05:56:12;;;;;;;0.10;0.10;;;12.90;99.90;;;;;;5067425;28;20049;-73
2023/12/25 05:58:39;;;;;;;0.17;0.17;;;12.90;99.90;;;;;;5066280;28;20153;-73
2023/12/25 06:01:08;;;;;;;0.10;0.10;;;12.90;99.90;;;;;;5067786;28;20546;-74
2023/12/25 06:03:35;;;;;;;0.30;0.10;;;12.90;99.90;;;;;;5066408;28;20052;-73
2023/12/25 06:06:02;;;;;;;0.32;0.10;;;12.90;99.90;;;;;;5067896;28;20515;-73
2023/12/25 06:08:30;;;;;;;0.75;0.30;;;12.90;99.90;;;;;;5071439;28;20049;-74
2023/12/25 06:10:57;;;;;;;0.10;0.10;;;12.90;99.90;;;;;;5074249;28;20052;-73
2023/12/25 06:13:24;;;;;;;0.22;0.13;;;12.90;99.90;;;;;;5072409;28;20067;-73
2023/12/25 06:15:51;;;;;;;0.10;0.10;;;12.90;99.90;;;;;;5074658;28;20090;-73
2023/12/25 06:18:18;;;;;;;0.22;0.22;;;12.90;99.90;;;;;;5073580;28;20040;-73
2023/12/25 06:20:46;;;;;;;0.90;0.10;;;12.90;99.90;;;;;;5071274;28;20052;-73
2023/12/25 06:23:13;;;;;;;0.35;0.17;;;13.00;99.90;;;;;;5070536;28;20040;-73
2023/12/25 06:25:40;;;;;;;3.35;0.40;;;13.00;99.90;;;;;;5071335;28;20052;-73
2023/12/25 06:28:06;;;;;;;0.20;0.20;;;13.00;99.90;;;;;;5070726;28;20036;-74
2023/12/25 06:30:34;;;;;;;0.60;0.10;;;13.00;99.90;;;;;;5070907;28;20504;-73
2023/12/25 06:33:01;;;;;;;0.60;0.20;;;13.00;99.90;;;;;;5070616;28;20041;-73
2023/12/25 06:35:28;;;;;;;0.52;0.10;;;13.00;99.90;;;;;;5070996;28;20131;-72
2023/12/25 06:37:55;;;;;;;0.10;0.10;;;13.00;99.90;;;;;;5070675;28;20048;-72
2023/12/25 06:40:22;;;;;;;1.13;0.40;;;13.00;99.90;;;;;;5067504;28;20432;-74
2023/12/25 06:42:49;;;;;;;3.00;0.38;;;13.00;99.90;;;;;;5070885;28;20545;-73
2023/12/25 06:45:16;;;;;;;0.25;0.10;;;13.10;99.90;;;;;;5070400;28;20044;-72
2023/12/25 06:47:42;;;;;;;0.30;0.15;;;13.00;99.90;;;;;;5070540;28;20051;-73
2023/12/25 06:50:09;;;;;;;0.20;0.10;;;13.10;99.90;;;;;;5070233;28;20044;-74
2023/12/25 06:52:36;;;;;;;0.88;0.15;;;13.00;99.90;;;;;;5071036;28;20048;-74
2023/12/25 06:55:03;;;;;;;1.55;0.30;;;12.90;99.90;;;;;;5069778;28;20053;-74
2023/12/25 06:57:30;;;;;;;1.65;0.55;;;13.00;99.90;;;;;;5070478;28;20052;-74
2023/12/25 06:59:57;;;;;;;0.15;0.10;;;13.00;99.90;;;;;;5068672;28;20052;-74
2023/12/25 07:02:24;;;;;;;1.50;0.30;;;13.00;99.90;;;;;;5064590;28;20048;-74
2023/12/25 07:04:51;;;;;;;1.25;0.17;;;13.00;99.90;;;;;;5062808;28;20449;-74
2023/12/25 07:07:17;;;;;;;0.10;0.10;;;13.10;99.90;;;;;;5062434;28;20052;-75
2023/12/25 07:09:44;;;;;;;0.13;0.10;;;13.00;99.90;;;;;;5056049;28;20049;-74
2023/12/25 07:12:11;;;;;;;0.43;0.20;;;13.00;99.90;;;;;;5066605;28;20041;-74
2023/12/25 07:14:38;;;;;;;0.57;0.20;;;13.10;99.90;;;;;;5066909;28;20427;-74
2023/12/25 07:17:08;;;;;;;2.63;0.95;;;13.10;99.90;;;;;;5067715;28;20075;-73
2023/12/25 07:19:35;;;;;;;0.22;0.20;;;13.10;99.90;;;;;;5052585;28;20051;-74
2023/12/25 07:22:02;;;;;;;1.52;0.10;;;13.10;99.90;;;;;;5061735;28;20059;-74
2023/12/25 07:24:28;;;;;;;0.82;0.20;;;13.20;99.90;;;;;;5066631;28;20530;-74
2023/12/25 07:26:56;;;;;;;0.65;0.10;;;13.20;99.90;;;;;;5069126;28;20400;-74
2023/12/25 07:29:23;;;;;;;1.13;0.17;;;13.20;99.90;;;;;;5069881;28;20043;-74
2023/12/25 07:31:50;;;;;;;0.13;0.10;;;13.20;99.90;;;;;;5061740;28;20487;-73
2023/12/25 07:34:17;;;;;;;0.68;0.22;;;13.30;99.90;;;;;;5052119;28;20049;-74
2023/12/25 07:36:44;;;;;;;0.55;0.30;;;13.30;99.90;;;;;;5065672;28;20357;-73
2023/12/25 07:39:13;;;;;;;0.10;0.10;;;13.30;99.90;;;;;;5052164;28;20276;-74
2023/12/25 07:41:41;;;;;;;2.72;0.22;;;13.30;99.90;;;;;;5061549;28;20053;-72
2023/12/25 07:44:08;;;;;;;0.65;0.30;;;13.30;99.90;;;;;;5063084;28;20049;-73
2023/12/25 07:46:35;;;;;;;1.52;0.20;;;13.30;99.90;;;;;;5062647;28;20067;-74
2023/12/25 07:49:02;;;;;;;1.35;0.20;;;13.30;99.90;;;;;;5066792;28;20451;-74
2023/12/25 07:51:30;;;;;;;0.68;0.20;;;13.30;99.90;;;;;;5065046;28;20055;-75
2023/12/25 07:53:56;;;;;;;2.75;0.68;;;13.30;99.90;;;;;;5069149;28;20045;-74
2023/12/25 07:56:23;;;;;;;1.08;0.32;;;13.40;99.90;;;;;;5069132;28;20246;-74
2023/12/25 07:58:51;;;;;;;1.48;0.43;;;13.30;99.90;;;;;;5069098;28;20135;-74
2023/12/25 08:01:19;;;;;;;1.92;0.20;;;13.30;99.90;;;;;;5065614;28;20098;-74
2023/12/25 08:03:46;;;;;;;0.80;0.30;;;13.30;99.90;;;;;;5069297;28;20439;-74
2023/12/25 08:06:13;;;;;;;3.13;0.20;;;13.30;99.90;;;;;;5068159;28;20036;-74
2023/12/25 08:08:40;;;;;;;0.68;0.20;;;13.30;99.90;;;;;;5063734;28;20049;-75
2023/12/25 08:11:06;;;;;;;0.95;0.40;;;13.20;99.90;;;;;;5058295;28;20052;-75
2023/12/25 08:13:33;;;;;;;0.35;0.10;;;13.20;99.90;;;;;;5069172;28;20071;-75
2023/12/25 08:16:00;;;;;;;0.30;0.20;;;13.10;99.90;;;;;;5064676;28;20109;-74
2023/12/25 08:18:27;;;;;;;3.33;0.30;;;13.00;99.90;;;;;;5068753;28;20388;-74
2023/12/25 08:20:54;;;;;;;2.38;0.45;;;12.90;99.90;;;;;;5068425;28;20052;-74
2023/12/25 08:23:21;;;;;;;1.25;0.30;;;12.80;99.90;;;;;;5066278;28;20461;-75
2023/12/25 08:25:47;;;;;;;1.00;0.38;;;12.70;99.90;;;;;;5063252;28;20051;-71
2023/12/25 08:28:14;;;;;;;2.42;0.40;;;12.70;99.90;;;;;;5067761;28;20411;-71
2023/12/25 08:30:41;;;;;;;0.65;0.20;;;12.50;99.90;;;;;;5063461;28;20048;-70
2023/12/25 08:33:08;;;;;;;1.42;0.38;;;12.40;99.90;;;;;;5062005;28;20136;-70
2023/12/25 08:35:35;;;;;;;0.90;0.30;;;12.40;99.90;;;;;;5059258;28;20053;-71
2023/12/25 08:38:02;;;;;;;3.03;0.55;;;12.40;99.90;;;;;;5057247;28;20483;-70
2023/12/25 08:40:29;;;;;;;2.55;0.55;;;12.40;99.90;;;;;;5053479;28;20056;-69
2023/12/25 08:42:56;;;;;;;2.72;0.55;;;12.40;99.90;;;;;;5062669;28;20044;-70
2023/12/25 08:45:24;;;;;;;1.38;0.40;;;12.40;99.90;;;;;;5056938;28;20049;-69
2023/12/25 08:47:52;;;;;;;0.90;0.40;;;12.40;99.90;;;;;;5063242;28;20063;-69
2023/12/25 08:50:20;;;;;;;2.53;1.13;;;12.30;99.90;;;;;;5059783;28;20049;-69
2023/12/25 08:52:47;;;;;;;1.83;0.80;;;12.30;99.90;;;;;;5059694;28;20044;-68
2023/12/25 08:55:13;;;;;;;1.73;0.98;;;12.40;99.90;;;;;;5065506;28;20106;-69
2023/12/25 08:57:40;;;;;;;0.40;0.40;;;12.40;99.90;;;;;;5061156;28;20044;-68
2023/12/25 09:00:10;;;;;;;1.20;0.70;;;12.40;99.90;;;;;;5060357;28;20079;-72
2023/12/25 09:02:37;;;;;;;3.85;0.82;;;12.30;99.90;;;;;;5053429;28;20128;-68
2023/12/25 09:05:04;;;;;;;0.77;0.47;;;12.40;99.90;;;;;;5054747;28;20044;-69
2023/12/25 09:07:33;;;;;;;1.35;0.45;;;12.40;99.90;;;;;;5050754;28;20076;-69
2023/12/25 09:10:01;;;;;;;1.52;0.50;;;12.30;99.90;;;;;;5063436;28;20052;-70
2023/12/25 09:12:27;;;;;;;0.35;0.30;;;12.30;99.90;;;;;;5054546;28;20066;-70
2023/12/25 09:14:54;;;;;;;0.77;0.22;;;12.40;99.90;;;;;;5065879;28;20508;-69
2023/12/25 09:17:21;;;;;;;0.75;0.50;;;12.30;99.90;;;;;;5061000;28;20047;-69
2023/12/25 09:19:48;;;;;;;2.35;0.30;;;12.40;99.90;;;;;;5064676;28;20059;-69
2023/12/25 09:22:15;;;;;;;0.68;0.40;;;12.30;99.90;;;;;;5061992;28;20045;-70
2023/12/25 09:24:44;;;;;;;1.15;0.30;;;12.30;99.90;;;;;;5060986;28;20102;-70
2023/12/25 09:27:11;;;;;;;1.70;0.50;;;12.40;99.90;;;;;;5054746;28;20069;-70
2023/12/25 09:29:37;;;;;;;1.45;0.50;;;12.40;99.90;;;;;;5060814;28;20492;-69
2023/12/25 09:32:04;;;;;;;0.65;0.40;;;12.40;99.90;;;;;;5049036;28;20060;-69
2023/12/25 09:34:31;;;;;;;1.13;0.30;;;12.40;99.90;;;;;;5062941;28;20056;-69
2023/12/25 09:37:18;;;;;;;0.50;0.25;;;12.40;99.90;;;;;;5064590;28;20036;-69
2023/12/25 09:39:45;;;;;;;0.32;0.20;;;12.40;99.90;;;;;;5066552;28;20057;-70
2023/12/25 09:42:12;;;;;;;0.10;0.10;;;12.40;99.90;;;;;;5063975;28;20040;-70
2023/12/25 09:44:38;;;;;;;0.52;0.20;;;12.40;99.90;;;;;;5063995;28;20052;-70
2023/12/25 09:47:06;;;;;;;1.63;0.40;;;12.40;99.90;;;;;;5060396;28;20044;-71
2023/12/25 09:49:36;;;;;;;1.83;0.50;;;12.40;99.90;;;;;;5069404;28;20040;-70
2023/12/25 09:52:03;;;;;;;2.35;0.50;;;12.50;99.90;;;;;;5064312;28;20041;-70
2023/12/25 09:54:30;;;;;;;1.83;0.47;;;12.50;99.90;;;;;;5067754;28;20072;-70
2023/12/25 09:56:57;;;;;;;1.98;0.40;;;12.50;99.90;;;;;;5065654;28;20430;-70
2023/12/25 09:59:25;;;;;;;1.23;0.55;;;12.50;99.90;;;;;;5053231;28;20423;-71
2023/12/25 10:01:52;;;;;;;2.40;0.60;;;12.60;99.90;;;;;;5067431;28;20048;-70
2023/12/25 10:04:19;;;;;;;1.33;0.40;;;12.60;99.90;;;;;;5067248;28;20090;-69
2023/12/25 10:06:46;;;;;;;1.77;0.43;;;12.60;99.90;;;;;;5064152;28;20056;-72
2023/12/25 10:09:12;;;;;;;3.70;1.05;;;12.60;99.90;;;;;;5062429;28;20045;-70
2023/12/25 10:11:39;;;;;;;4.63;0.65;;;12.50;99.90;;;;;;5070841;28;20040;-71
2023/12/25 10:14:06;;;;;;;3.47;0.88;;;12.50;99.90;;;;;;5071177;28;20076;-71
2023/12/25 10:16:34;;;;;;;4.28;0.85;;;12.50;99.90;;;;;;5075704;28;20049;-70
2023/12/25 10:19:00;;;;;;;1.75;0.52;;;12.50;99.90;;;;;;5069241;28;20118;-70
2023/12/25 10:21:40;;;;;;;5.53;0.90;;;12.60;99.90;;;;;;5065668;28;20110;-70
2023/12/25 10:24:16;;;;;;;3.42;0.98;;;12.60;99.90;;;;;;5057930;28;20111;-71
2023/12/25 10:26:46;;;;;;;4.38;0.70;;;12.60;99.90;;;;;;5062030;28;20114;-71
2023/12/25 10:29:13;;;;;;;3.28;1.10;;;12.60;99.90;;;;;;5056173;28;20055;-71
2023/12/25 10:31:43;;;;;;;7.95;0.90;;;12.60;99.90;;;;;;5064619;28;20093;-70
2023/12/25 10:34:10;;;;;;;4.53;0.90;;;12.70;99.90;;;;;;5068015;28;20044;-71
2023/12/25 10:36:38;;;;;;;4.13;1.98;;;12.70;99.90;;;;;;5062464;28;20044;-73
2023/12/25 10:39:05;;;;;;;4.03;0.70;;;12.70;99.90;;;;;;5060528;28;20059;-73
2023/12/25 10:41:33;;;;;;;3.88;0.70;;;12.70;99.90;;;;;;5063418;28;20053;-72
2023/12/25 10:44:02;;;;;;;2.65;0.75;;;12.70;99.90;;;;;;5066172;28;20052;-77
2023/12/25 10:46:30;;;;;;;4.20;0.60;;;12.70;99.90;;;;;;5061172;28;20051;-75
2023/12/25 10:48:57;;;;;;;3.97;1.02;;;12.70;99.90;;;;;;5056416;28;20060;-74
2023/12/25 10:51:32;;;;;;;2.90;0.88;;;12.70;99.90;;;;;;5056069;28;20499;-73
2023/12/25 10:54:01;;;;;;;5.47;1.05;;;12.70;99.90;;;;;;5053597;28;20045;-73
2023/12/25 10:56:33;;;;;;;6.40;0.57;;;12.70;99.90;;;;;;5060976;28;20109;-73
2023/12/25 10:59:09;;;;;;;4.88;1.13;;;12.70;99.90;;;;;;5066065;28;20094;-75
2023/12/25 11:01:35;;;;;;;2.85;1.02;;;12.70;99.90;;;;;;5062030;28;20145;-73
2023/12/25 11:04:03;;;;;;;8.98;1.38;;;12.70;99.90;;;;;;5057866;28;20048;-76
2023/12/25 11:06:29;;;;;;;3.40;0.80;;;12.70;99.90;;;;;;5062544;28;20553;-75
2023/12/25 11:08:57;;;;;;;5.07;1.10;;;12.70;99.90;;;;;;5064588;28;20079;-73
2023/12/25 11:11:24;;;;;;;1.30;0.50;;;12.60;99.90;;;;;;5060970;28;20063;-74
2023/12/25 11:13:50;;;;;;;3.90;0.90;;;12.60;99.90;;;;;;5068425;28;20452;-73
2023/12/25 11:16:17;;;;;;;4.88;1.73;;;12.60;99.90;;;;;;5049078;28;20434;-74
2023/12/25 11:18:45;;;;;;;2.67;1.00;;;12.60;99.90;;;;;;5065753;28;20045;-75
2023/12/25 11:21:12;;;;;;;3.65;2.00;;;12.60;99.90;;;;;;5069905;28;20059;-74
2023/12/25 11:23:42;;;;;;;10.30;1.52;;;12.70;99.90;;;;;;5064010;28;20045;-75
2023/12/25 11:26:12;;;;;;;1.38;0.77;;;12.70;99.90;;;;;;5067735;28;20045;-73
2023/12/25 11:28:43;;;;;;;3.45;0.82;;;12.70;99.90;;;;;;5068469;28;20506;-73
2023/12/25 11:31:13;;;;;;;6.38;1.40;;;12.80;99.90;;;;;;5065271;28;20040;-74
2023/12/25 11:33:45;;;;;;;4.43;0.85;;;12.80;99.90;;;;;;5067243;28;20067;-74
2023/12/25 11:36:16;;;;;;;6.87;1.27;;;12.80;99.90;;;;;;5068138;28;20604;-74
2023/12/25 11:38:47;;;;;;;3.50;0.82;;;12.80;99.90;;;;;;5059654;28;20506;-74
2023/12/25 11:41:18;;;;;;;4.05;1.17;;;12.80;99.90;;;;;;5065148;28;20054;-76
2023/12/25 11:43:47;;;;;;;5.75;0.82;;;12.80;99.90;;;;;;5061526;28;20055;-75
2023/12/25 11:46:16;;;;;;;6.72;1.20;;;12.80;99.90;;;;;;5062500;28;20052;-73
2023/12/25 11:48:44;;;;;;;2.10;0.93;;;12.90;99.90;;;;;;5058576;28;20075;-71
2023/12/25 11:51:25;;;;;;;4.55;1.10;;;12.90;99.90;;;;;;5058585;28;20044;-75
2023/12/25 11:53:55;;;;;;;8.35;1.83;;;12.90;99.90;;;;;;5060216;28;20459;-75
2023/12/25 11:56:23;;;;;;;4.22;1.20;;;12.90;99.90;;;;;;5062964;28;20060;-75
2023/12/25 11:58:52;;;;;;;5.97;1.35;;;13.00;99.90;;;;;;5057491;28;20156;-75
2023/12/25 12:01:19;;;;;;;1.77;0.80;;;13.00;99.90;;;;;;5043050;28;20048;-75
2023/12/25 12:03:49;;;;;;;1.95;0.82;;;12.90;99.90;;;;;;5068931;28;20041;-75
2023/12/25 12:06:17;;;;;;;2.13;0.70;;;13.00;99.90;;;;;;5065260;28;20044;-75
2023/12/25 12:08:44;;;;;;;2.08;0.73;;;13.00;99.90;;;;;;5055855;28;20036;-71
2023/12/25 12:11:13;;;;;;;3.22;0.80;;;12.90;99.90;;;;;;5061510;28;20048;-71
2023/12/25 12:13:40;;;;;;;2.58;0.73;;;13.00;99.90;;;;;;5052365;28;20063;-71
2023/12/25 12:16:07;;;;;;;3.50;0.82;;;13.00;99.90;;;;;;5065708;28;20107;-71
2023/12/25 12:18:34;;;;;;;1.77;0.65;;;13.00;99.90;;;;;;5058589;28;20045;-70
2023/12/25 12:21:02;;;;;;;3.10;0.70;;;13.00;99.90;;;;;;5068649;28;20056;-72
2023/12/25 12:23:31;;;;;;;9.57;1.23;;;12.90;99.90;;;;;;5052232;28;20056;-71
2023/12/25 12:25:59;;;;;;;5.75;2.17;;;13.00;99.90;;;;;;5062362;28;20045;-71
2023/12/25 12:28:26;;;;;;;5.15;1.00;;;13.00;99.90;;;;;;5064787;28;20074;-71
2023/12/25 12:30:53;;;;;;;3.60;0.60;;;13.00;99.90;;;;;;5058658;28;20075;-71
2023/12/25 12:33:20;;;;;;;1.13;0.63;;;13.00;99.90;;;;;;5061441;28;20059;-71
2023/12/25 12:35:48;;;;;;;1.45;0.65;;;12.90;99.90;;;;;;5067173;28;20052;-71
2023/12/25 12:38:15;;;;;;;4.00;0.88;;;12.80;99.90;;;;;;5060574;28;20068;-70
2023/12/25 12:40:42;;;;;;;1.65;0.60;;;12.70;99.90;;;;;;5062761;28;20049;-69
2023/12/25 12:43:09;;;;;;;2.35;0.60;;;12.60;99.90;;;;;;5067802;28;20044;-70
2023/12/25 12:45:36;;;;;;;3.72;1.30;;;12.60;99.90;;;;;;5054027;28;20111;-70